Forum - METEO

POST X METEO

Amministratore
F.ranco52 11/10/2021 ore 08:51 Quota

(nessuno) Nowcasting Lunedì 11 Ottobre 2021

Buongiorno e Buona Giornata a tutti





Notizie Meteo dell'Italia da il Meteo .It


http://ilMeteo.It


la Situazione Italiana vista dal Sat









il Radar Europeo










Brindisi

METAR LIBR 110550Z 28009KT CAVOK 12/08 Q1013=

METAR di Brindisi del 11 alle 5,50z

Vento da 280░ W NW 9 nodi (16,668 km) VisibilitÓ 10000 m
Base delle Nubi e VisibilitÓ OK
Temp 12░C Dew 8░C Ur 76% hPa 1013

Brindisi

TAF LIBR 110500Z 1106/1206 27010KT 9999 SCT020 TEMPO 1112/1118 SHRA=

le TAF di Brindisi delle 5z Previsioni dalle 6z alle 6z del 12

Vento da 270░ W 10 nodi (18,52 km) VisibilitÓ 10000 m
Copertura 3-4 ottavi da 2000 piedi (609,6 m)
il Tempo VarierÓ dalle 12z alle 18z
Rovesci di Pioggia


Gioia del Colle

METAR LIBV 110455Z 29005KT 9999 FEW050 09/08 Q1012 RMK BKN BKN180 VIS MIN 9999 WIND THR32 32007KT WIND THR14 29007KT BLU=

METAR di Gioia del Colle del 11 alle 4,55z

Vento da 290░ W NW 5 nodi (9,26 km) VisibilitÓ 10000 m
Copertura 1-2 ottavi da 5000 piedi (1524 m)
Temp 8░C Dew 8░C Ur 87% hPa 1012
Aumento della NuvolositÓ a 5-7 ottavi
Copertura 5-7 ottavi da 18000 piedi (5486,4 m)
VisibilitÓ Minima 10000 m

Gioia del Colle

TAF LIBV 110500Z 1106/1115 31007KT 9999 SCT020 TEMPO 1108/1112 RA=

le TAF di Gioia del Colle delle 5z Previsioni dalle 6z alle 15z

Vento da 310░ W NW 7 nodi (12,962 km) VisibilitÓ 10000 m
Copertura3-4 ottavi da 2000 piedi (609,6 m)
il Tempo VarierÓ dalle 8z alle 12z
Pioggia
2743182
Buongiorno e Buona Giornata a tutti Notizie Meteo dell'Italia da il Meteo .It http://ilMeteo.It la Situazione Italiana vista dal...
Discussione
11/10/2021 08:51:54
none
  • mi piace
    iLikeIt
    PublicVote

Vuoi partecipare anche tu a questa discussione?

Rispondi per lasciare il tuo messaggio in questa discussione